Time,TemperatureF,DewpointF,PressureIn,WindDirection,WindDirectionDegrees,WindSpeedMPH,WindSpeedGustMPH,Humidity,HourlyPrecipIn,Conditions,Clouds,dailyrainin,SoftwareType,DateUTC
2013-07-18 00:02:00,74.0,73.0,30.14,SE,139,0.0,1.0,97,0.00,,,0.00,,2013-07-18 04:02:00,
2013-07-18 00:12:00,74.0,73.0,30.14,SE,139,0.0,0.0,97,0.00,,,0.00,,2013-07-18 04:12:00,
2013-07-18 00:22:00,74.0,73.0,30.13,SE,139,0.0,0.0,97,0.00,,,0.00,,2013-07-18 04:22:00,
2013-07-18 00:32:00,74.0,73.0,30.13,SE,139,0.0,0.0,98,0.00,,,0.00,,2013-07-18 04:32:00,
2013-07-18 00:43:00,74.0,73.0,30.13,SE,138,0.0,0.0,98,0.00,,,0.00,,2013-07-18 04:43:00,
2013-07-18 00:52:00,74.0,73.0,30.13,SE,138,0.0,0.0,98,0.00,,,0.00,,2013-07-18 04:52:00,
2013-07-18 01:02:00,73.0,72.0,30.13,SE,139,0.0,0.0,98,0.00,,,0.00,,2013-07-18 05:02:00,
2013-07-18 01:11:00,73.0,72.0,30.13,SE,139,0.0,0.0,98,0.00,,,0.00,,2013-07-18 05:11:00,
2013-07-18 01:22:00,74.0,74.0,30.14,SE,138,0.0,1.0,99,0.00,,,0.00,,2013-07-18 05:22:00,
2013-07-18 01:42:00,73.0,72.0,30.14,SE,139,0.0,0.0,98,0.00,,,0.00,,2013-07-18 05:42:00,
2013-07-18 01:52:00,73.0,73.0,30.13,SE,139,0.0,0.0,99,0.00,,,0.00,,2013-07-18 05:52:00,
2013-07-18 02:01:00,73.0,73.0,30.13,SE,139,0.0,0.0,99,0.00,,,0.00,,2013-07-18 06:01:00,
2013-07-18 02:12:00,73.0,73.0,30.13,SE,138,0.0,0.0,99,0.00,,,0.00,,2013-07-18 06:12:00,
2013-07-18 02:22:00,73.0,73.0,30.13,SE,139,0.0,0.0,99,0.00,,,0.00,,2013-07-18 06:22:00,
2013-07-18 02:32:00,73.0,73.0,30.12,SE,138,0.0,0.0,99,0.00,,,0.00,,2013-07-18 06:32:00,
2013-07-18 02:43:00,73.0,73.0,30.12,SE,138,0.0,0.0,99,0.00,,,0.00,,2013-07-18 06:43:00,
2013-07-18 02:52:00,73.0,73.0,30.11,SE,138,0.0,0.0,99,0.00,,,0.00,,2013-07-18 06:52:00,
2013-07-18 03:12:00,72.0,72.0,30.11,SE,138,0.0,0.0,99,0.00,,,0.00,,2013-07-18 07:12:00,
2013-07-18 03:32:00,72.0,72.0,30.11,SE,139,0.0,0.0,99,0.00,,,0.00,,2013-07-18 07:32:00,
2013-07-18 03:42:00,72.0,72.0,30.11,SE,139,0.0,0.0,99,0.00,,,0.00,,2013-07-18 07:42:00,
2013-07-18 03:52:00,72.0,72.0,30.11,SE,139,0.0,0.0,99,0.00,,,0.00,,2013-07-18 07:52:00,
2013-07-18 04:01:00,72.0,72.0,30.11,SE,139,0.0,0.0,99,0.00,,,0.00,,2013-07-18 08:01:00,
2013-07-18 04:11:00,72.0,72.0,30.11,SE,139,0.0,0.0,99,0.00,,,0.00,,2013-07-18 08:11:00,
2013-07-18 04:21:00,72.0,72.0,30.11,SE,138,0.0,0.0,99,0.00,,,0.00,,2013-07-18 08:21:00,
2013-07-18 04:32:00,72.0,72.0,30.11,SE,138,0.0,0.0,100,0.00,,,0.00,,2013-07-18 08:32:00,
2013-07-18 04:42:00,72.0,72.0,30.11,SE,139,0.0,0.0,100,0.00,,,0.00,,2013-07-18 08:42:00,
2013-07-18 04:51:00,72.0,72.0,30.12,SE,139,0.0,0.0,100,0.00,,,0.00,,2013-07-18 08:51:00,
2013-07-18 05:11:00,71.0,71.0,30.12,SE,139,0.0,0.0,100,0.00,,,0.00,,2013-07-18 09:11:00,
2013-07-18 05:21:00,71.0,71.0,30.12,SE,139,0.0,0.0,100,0.00,,,0.00,,2013-07-18 09:21:00,
2013-07-18 05:42:00,71.0,71.0,30.13,SE,139,0.0,0.0,100,0.00,,,0.00,,2013-07-18 09:42:00,
2013-07-18 05:51:00,71.0,71.0,30.12,SE,139,0.0,0.0,99,0.00,,,0.00,,2013-07-18 09:51:00,
2013-07-18 06:01:00,71.0,71.0,30.13,SE,139,0.0,0.0,100,0.00,,,0.00,,2013-07-18 10:01:00,
2013-07-18 06:11:00,71.0,71.0,30.13,SE,138,0.0,0.0,100,0.00,,,0.00,,2013-07-18 10:11:00,
2013-07-18 06:22:00,71.0,71.0,30.13,SE,139,0.0,0.0,99,0.00,,,0.00,,2013-07-18 10:22:00,
2013-07-18 06:32:00,71.0,71.0,30.13,SE,138,0.0,0.0,100,0.00,,,0.00,,2013-07-18 10:32:00,
2013-07-18 06:43:00,71.0,71.0,30.14,SE,139,0.0,0.0,100,0.00,,,0.00,,2013-07-18 10:43:00,
2013-07-18 06:52:00,71.0,71.0,30.14,SE,139,0.0,0.0,100,0.00,,,0.00,,2013-07-18 10:52:00,
2013-07-18 07:11:00,71.0,71.0,30.13,SE,138,0.0,0.0,100,0.00,,,0.00,,2013-07-18 11:11:00,
2013-07-18 07:52:00,73.0,73.0,30.13,SE,139,0.0,0.0,100,0.00,,,0.00,,2013-07-18 11:52:00,
2013-07-18 08:02:00,74.0,74.0,30.14,SE,139,0.0,0.0,100,0.00,,,0.00,,2013-07-18 12:02:00,
2013-07-18 08:11:00,76.0,76.0,30.14,SE,138,0.0,0.0,100,0.00,,,0.00,,2013-07-18 12:11:00,
2013-07-18 08:22:00,77.0,77.0,30.13,SE,137,0.0,0.0,100,0.00,,,0.00,,2013-07-18 12:22:00,
2013-07-18 08:32:00,78.0,78.0,30.13,SE,137,0.0,0.0,100,0.00,,,0.00,,2013-07-18 12:32:00,
2013-07-18 08:42:00,81.0,79.0,30.13,SE,136,0.0,0.0,95,0.00,,,0.00,,2013-07-18 12:42:00,
2013-07-18 08:52:00,82.0,77.0,30.13,SE,137,0.0,1.0,84,0.00,,,0.00,,2013-07-18 12:52:00,
2013-07-18 09:01:00,82.0,77.0,30.13,SE,137,0.0,1.0,84,0.00,,,0.00,,2013-07-18 13:01:00,
2013-07-18 09:22:00,87.0,76.0,30.13,SE,141,0.0,1.0,71,0.00,,,0.00,,2013-07-18 13:22:00,
2013-07-18 09:43:00,88.0,74.0,30.13,SE,141,0.0,1.0,63,0.00,,,0.00,,2013-07-18 13:43:00,
2013-07-18 10:12:00,89.0,74.0,30.13,SSW,212,1.0,1.0,62,0.00,,,0.00,,2013-07-18 14:12:00,
2013-07-18 10:43:00,91.0,75.0,30.13,SW,224,1.0,2.0,60,0.00,,,0.00,,2013-07-18 14:43:00,
2013-07-18 11:01:00,92.0,75.0,30.14,West,267,0.0,2.0,57,0.00,,,0.00,,2013-07-18 15:01:00,
2013-07-18 11:11:00,92.0,75.0,30.14,WSW,252,0.0,1.0,58,0.00,,,0.00,,2013-07-18 15:11:00,
2013-07-18 11:32:00,92.0,73.0,30.14,NW,321,1.0,2.0,55,0.00,,,0.00,,2013-07-18 15:32:00,
2013-07-18 11:43:00,91.0,74.0,30.14,WNW,290,0.0,4.0,58,0.00,,,0.00,,2013-07-18 15:43:00,
2013-07-18 11:53:00,91.0,73.0,30.14,South,179,1.0,3.0,56,0.00,,,0.00,,2013-07-18 15:53:00,
2013-07-18 12:22:00,91.0,74.0,30.14,ESE,121,1.0,5.0,57,0.00,,,0.00,,2013-07-18 16:22:00,
2013-07-18 12:32:00,92.0,75.0,30.14,SW,221,1.0,4.0,57,0.00,,,0.00,,2013-07-18 16:32:00,
2013-07-18 12:42:00,92.0,75.0,30.13,ESE,123,1.0,4.0,57,0.00,,,0.00,,2013-07-18 16:42:00,
2013-07-18 12:52:00,92.0,73.0,30.13,South,176,0.0,3.0,54,0.00,,,0.00,,2013-07-18 16:52:00,
2013-07-18 13:02:00,93.0,74.0,30.13,South,186,1.0,4.0,55,0.00,,,0.00,,2013-07-18 17:02:00,
2013-07-18 13:11:00,92.0,75.0,30.13,NW,321,1.0,8.0,57,0.00,,,0.00,,2013-07-18 17:11:00,
2013-07-18 13:33:00,90.0,72.0,30.13,SSE,162,4.0,7.0,56,0.00,,,0.00,,2013-07-18 17:33:00,
2013-07-18 13:43:00,91.0,74.0,30.13,ENE,60,2.0,5.0,57,0.00,,,0.00,,2013-07-18 17:43:00,
2013-07-18 13:52:00,92.0,75.0,30.13,East,88,2.0,5.0,58,0.00,,,0.00,,2013-07-18 17:52:00,
2013-07-18 14:01:00,92.0,74.0,30.12,NE,53,3.0,6.0,56,0.00,,,0.00,,2013-07-18 18:01:00,
2013-07-18 14:22:00,91.0,74.0,30.12,ESE,108,3.0,6.0,57,0.00,,,0.00,,2013-07-18 18:22:00,
2013-07-18 14:43:00,91.0,74.0,30.12,NNE,20,2.0,5.0,57,0.00,,,0.00,,2013-07-18 18:43:00,
2013-07-18 14:52:00,91.0,74.0,30.11,South,190,3.0,9.0,58,0.00,,,0.00,,2013-07-18 18:52:00,
2013-07-18 15:11:00,90.0,75.0,30.11,NW,323,1.0,6.0,61,0.00,,,0.00,,2013-07-18 19:11:00,
2013-07-18 15:43:00,89.0,75.0,30.10,SE,132,2.0,7.0,64,0.00,,,0.00,,2013-07-18 19:43:00,
2013-07-18 15:53:00,89.0,75.0,30.10,NW,310,3.0,6.0,63,0.00,,,0.00,,2013-07-18 19:53:00,
2013-07-18 16:22:00,89.0,75.0,30.09,NNE,30,2.0,6.0,64,0.00,,,0.00,,2013-07-18 20:22:00,
2013-07-18 16:32:00,89.0,74.0,30.09,WNW,293,3.0,5.0,62,0.00,,,0.00,,2013-07-18 20:32:00,
2013-07-18 16:43:00,89.0,76.0,30.09,NNE,29,3.0,9.0,65,0.00,,,0.00,,2013-07-18 20:43:00,
2013-07-18 16:52:00,89.0,75.0,30.09,SE,136,3.0,6.0,64,0.00,,,0.00,,2013-07-18 20:52:00,
2013-07-18 17:01:00,88.0,75.0,30.09,WSW,247,2.0,9.0,66,0.00,,,0.00,,2013-07-18 21:01:00,
2013-07-18 17:11:00,88.0,73.0,30.09,SSE,158,2.0,5.0,62,0.00,,,0.00,,2013-07-18 21:11:00,
2013-07-18 17:22:00,88.0,75.0,30.09,West,280,3.0,8.0,65,0.00,,,0.00,,2013-07-18 21:22:00,
2013-07-18 17:32:00,88.0,74.0,30.09,North,358,2.0,5.0,64,0.00,,,0.00,,2013-07-18 21:32:00,
2013-07-18 17:43:00,88.0,73.0,30.08,NNE,13,2.0,5.0,61,0.00,,,0.00,,2013-07-18 21:43:00,
2013-07-18 17:52:00,88.0,73.0,30.08,NW,312,1.0,6.0,62,0.00,,,0.00,,2013-07-18 21:52:00,
2013-07-18 18:01:00,88.0,74.0,30.08,NE,53,2.0,5.0,64,0.00,,,0.00,,2013-07-18 22:01:00,
2013-07-18 18:11:00,88.0,75.0,30.08,NW,319,2.0,5.0,65,0.00,,,0.00,,2013-07-18 22:11:00,
2013-07-18 18:22:00,88.0,75.0,30.08,SE,139,2.0,4.0,66,0.00,,,0.00,,2013-07-18 22:22:00,
2013-07-18 18:32:00,88.0,75.0,30.07,SSE,156,2.0,5.0,66,0.00,,,0.00,,2013-07-18 22:32:00,
2013-07-18 18:53:00,87.0,76.0,30.07,East,96,1.0,3.0,69,0.00,,,0.00,,2013-07-18 22:53:00,
2013-07-18 19:02:00,86.0,75.0,30.08,ENE,64,2.0,4.0,70,0.00,,,0.00,,2013-07-18 23:02:00,
2013-07-18 19:11:00,86.0,75.0,30.08,South,187,1.0,3.0,69,0.00,,,0.00,,2013-07-18 23:11:00,
2013-07-18 19:22:00,85.0,74.0,30.07,SE,128,2.0,5.0,70,0.00,,,0.00,,2013-07-18 23:22:00,
2013-07-18 19:42:00,84.0,75.0,30.08,SSE,150,2.0,5.0,75,0.00,,,0.00,,2013-07-18 23:42:00,
2013-07-18 20:11:00,82.0,74.0,30.08,SE,142,0.0,4.0,77,0.00,,,0.00,,2013-07-19 00:11:00,
2013-07-18 20:22:00,82.0,74.0,30.09,NW,322,1.0,5.0,77,0.00,,,0.00,,2013-07-19 00:22:00,
2013-07-18 20:32:00,81.0,73.0,30.09,WNW,302,1.0,2.0,78,0.00,,,0.00,,2013-07-19 00:32:00,
2013-07-18 20:43:00,81.0,74.0,30.09,SSE,154,1.0,3.0,79,0.00,,,0.00,,2013-07-19 00:43:00,
2013-07-18 21:01:00,81.0,75.0,30.10,SSW,212,1.0,4.0,83,0.00,,,0.00,,2013-07-19 01:01:00,
2013-07-18 21:11:00,81.0,76.0,30.10,WNW,285,1.0,5.0,84,0.00,,,0.00,,2013-07-19 01:11:00,
2013-07-18 21:42:00,80.0,75.0,30.11,NW,319,0.0,3.0,84,0.00,,,0.00,,2013-07-19 01:42:00,
2013-07-18 21:52:00,80.0,75.0,30.11,WNW,302,1.0,4.0,84,0.00,,,0.00,,2013-07-19 01:52:00,
2013-07-18 22:22:00,80.0,75.0,30.11,ESE,122,0.0,1.0,85,0.00,,,0.00,,2013-07-19 02:22:00,
2013-07-18 22:32:00,80.0,75.0,30.12,WNW,300,0.0,2.0,86,0.00,,,0.00,,2013-07-19 02:32:00,
2013-07-18 22:42:00,80.0,75.0,30.12,West,269,0.0,2.0,86,0.00,,,0.00,,2013-07-19 02:42:00,
2013-07-18 22:52:00,79.0,74.0,30.11,NW,321,0.0,1.0,86,0.00,,,0.00,,2013-07-19 02:52:00,
2013-07-18 23:52:00,79.0,75.0,30.12,North,355,0.0,1.0,89,0.00,,,0.00,,2013-07-19 03:52:00,